Time;durP1;ratioP1;P1;durP2;ratioP2;P2;SDS_P1;SDS_P2;PMS_P1;PMS_P2;Temp;Humidity;BMP_temperature;BMP_pressure;BME280_temperature;BME280_humidity;BME280_pressure;Samples;Min_cycle;Max_cycle;Signal;HPM_P1;HPM_P2
2021/10/27 00:01:17;;;;;;;9.97;7.23;;;12.80;99.90;;;;;;5028332;28;20457;-50
2021/10/27 00:03:43;;;;;;;8.60;7.70;;;12.80;99.90;;;;;;5027300;28;20191;-48
2021/10/27 00:06:09;;;;;;;8.17;6.87;;;12.80;99.90;;;;;;5028141;28;20205;-48
2021/10/27 00:08:34;;;;;;;8.80;6.87;;;12.80;99.90;;;;;;5024844;28;20194;-46
2021/10/27 00:11:00;;;;;;;8.27;7.27;;;12.90;99.90;;;;;;5021649;28;20218;-47
2021/10/27 00:13:27;;;;;;;8.27;7.27;;;12.80;99.90;;;;;;5026675;28;20190;-48
2021/10/27 00:15:53;;;;;;;9.33;8.33;;;12.80;99.90;;;;;;5033828;28;20432;-46
2021/10/27 00:18:18;;;;;;;8.13;7.10;;;12.90;99.90;;;;;;5047385;28;20841;-50
2021/10/27 00:20:44;;;;;;;8.87;7.90;;;12.90;99.90;;;;;;5048082;28;20312;-52
2021/10/27 00:23:10;;;;;;;9.30;7.33;;;12.90;99.90;;;;;;5047139;28;20186;-52
2021/10/27 00:25:36;;;;;;;8.07;7.10;;;12.90;99.90;;;;;;5014546;28;20619;-46
2021/10/27 00:28:01;;;;;;;8.63;7.70;;;12.80;99.90;;;;;;5027520;28;20424;-46
2021/10/27 00:30:27;;;;;;;9.00;7.60;;;12.80;99.90;;;;;;5027712;28;20269;-49
2021/10/27 00:32:53;;;;;;;9.47;7.57;;;12.80;99.90;;;;;;5026804;28;20456;-47
2021/10/27 00:35:18;;;;;;;7.90;7.10;;;12.90;99.90;;;;;;5028023;28;20190;-49
2021/10/27 00:37:44;;;;;;;8.57;7.67;;;12.90;99.90;;;;;;5027656;28;20652;-46
2021/10/27 00:40:11;;;;;;;8.80;7.83;;;12.90;99.90;;;;;;5018362;28;20222;-48
2021/10/27 00:42:37;;;;;;;9.70;8.10;;;12.90;99.90;;;;;;5027280;28;20185;-46
2021/10/27 00:45:03;;;;;;;12.90;8.70;;;13.00;99.90;;;;;;5027041;28;20422;-50
2021/10/27 00:47:28;;;;;;;9.30;7.77;;;13.00;99.90;;;;;;5026686;28;20193;-47
2021/10/27 00:49:54;;;;;;;10.37;8.80;;;12.90;99.90;;;;;;5027683;28;20855;-45
2021/10/27 00:52:20;;;;;;;9.20;8.10;;;12.90;99.90;;;;;;5027518;28;20201;-51
2021/10/27 00:54:49;;;;;;;7.90;7.10;;;13.00;99.90;;;;;;5018704;28;20190;-47
2021/10/27 00:57:17;;;;;;;9.70;7.33;;;13.00;99.90;;;;;;5023884;28;20190;-45
2021/10/27 00:59:45;;;;;;;9.57;8.30;;;13.00;99.90;;;;;;5028728;28;20428;-46
2021/10/27 01:02:12;;;;;;;9.37;7.67;;;13.00;99.90;;;;;;5027528;28;20677;-46
2021/10/27 01:04:39;;;;;;;8.77;7.90;;;12.90;99.90;;;;;;5046732;28;20412;-49
2021/10/27 01:07:05;;;;;;;10.27;7.43;;;12.90;99.90;;;;;;5038267;28;20479;-45
2021/10/27 01:09:33;;;;;;;8.43;7.60;;;12.80;99.90;;;;;;5020817;28;20448;-46
2021/10/27 01:11:59;;;;;;;10.97;7.47;;;12.80;99.90;;;;;;5020826;28;20528;-46
2021/10/27 01:14:41;;;;;;;7.73;6.83;;;12.80;99.90;;;;;;5026465;28;20429;-45
2021/10/27 01:17:08;;;;;;;8.00;7.20;;;12.90;99.90;;;;;;5023705;28;20421;-46
2021/10/27 01:19:59;;;;;;;7.03;6.33;;;12.90;99.90;;;;;;5027103;28;20515;-48
2021/10/27 01:22:29;;;;;;;8.77;6.53;;;12.90;99.90;;;;;;5027383;28;20460;-47
2021/10/27 01:24:56;;;;;;;8.83;6.63;;;13.00;99.90;;;;;;5018322;28;20421;-45
2021/10/27 01:27:22;;;;;;;7.50;6.80;;;12.90;99.90;;;;;;5026689;28;20843;-46
2021/10/27 01:29:49;;;;;;;10.83;7.50;;;13.00;99.90;;;;;;5026684;28;20807;-45
2021/10/27 01:32:32;;;;;;;8.23;7.17;;;13.00;99.90;;;;;;5026815;28;20956;-46
2021/10/27 01:34:59;;;;;;;10.03;6.23;;;13.00;99.90;;;;;;5042596;28;20527;-47
2021/10/27 01:37:25;;;;;;;8.33;6.90;;;13.00;99.90;;;;;;5046265;28;20412;-48
2021/10/27 01:39:53;;;;;;;7.40;6.73;;;13.00;99.90;;;;;;5030442;28;20420;-46
2021/10/27 01:42:20;;;;;;;7.53;6.70;;;13.00;99.90;;;;;;5023830;28;20421;-46
2021/10/27 01:44:45;;;;;;;8.10;7.13;;;13.00;99.90;;;;;;5025838;28;20436;-47
2021/10/27 01:47:11;;;;;;;7.87;6.43;;;13.10;99.90;;;;;;5026690;28;20783;-46
2021/10/27 01:49:37;;;;;;;7.57;6.80;;;13.10;99.90;;;;;;5026599;28;20425;-45
2021/10/27 01:52:03;;;;;;;7.40;6.70;;;13.10;99.90;;;;;;5026158;28;20581;-47
2021/10/27 01:54:29;;;;;;;10.20;7.20;;;13.10;99.90;;;;;;5021845;28;20336;-46
2021/10/27 01:56:55;;;;;;;7.50;6.80;;;13.10;99.90;;;;;;5020632;28;20876;-47
2021/10/27 01:59:21;;;;;;;8.47;6.80;;;13.10;99.90;;;;;;5026119;28;20499;-45
2021/10/27 02:01:48;;;;;;;9.20;6.93;;;13.10;99.90;;;;;;5026867;28;20249;-46
2021/10/27 02:04:14;;;;;;;10.00;6.70;;;13.10;99.90;;;;;;5024328;28;20428;-46
2021/10/27 02:06:40;;;;;;;7.50;6.70;;;13.10;99.90;;;;;;5025992;28;20429;-45
2021/10/27 02:09:06;;;;;;;10.67;7.20;;;13.20;99.90;;;;;;5039898;28;20216;-45
2021/10/27 02:11:32;;;;;;;7.70;6.70;;;13.10;99.90;;;;;;5018821;28;20444;-46
2021/10/27 02:13:58;;;;;;;7.03;6.33;;;13.00;99.90;;;;;;5024562;28;21009;-46
2021/10/27 02:16:25;;;;;;;7.17;6.47;;;13.00;99.90;;;;;;5026383;28;20229;-50
2021/10/27 02:18:51;;;;;;;8.23;7.37;;;13.10;99.90;;;;;;5025790;28;20182;-45
2021/10/27 02:21:18;;;;;;;7.40;6.70;;;13.10;99.90;;;;;;5025494;28;20859;-47
2021/10/27 02:23:43;;;;;;;8.43;7.63;;;13.10;99.90;;;;;;5025374;28;20463;-45
2021/10/27 02:26:09;;;;;;;10.73;7.47;;;13.10;99.90;;;;;;5016623;28;20436;-45
2021/10/27 02:28:35;;;;;;;9.30;7.70;;;13.10;99.90;;;;;;5025896;28;20275;-47
2021/10/27 02:31:01;;;;;;;9.17;7.23;;;13.00;99.90;;;;;;5025575;28;20932;-45
2021/10/27 02:33:27;;;;;;;7.03;6.43;;;13.10;99.90;;;;;;5025126;28;20863;-46
2021/10/27 02:35:53;;;;;;;10.50;7.80;;;13.10;99.90;;;;;;5025931;28;20512;-46
2021/10/27 02:38:19;;;;;;;9.87;6.80;;;13.10;99.90;;;;;;5025657;28;20194;-45
2021/10/27 02:40:46;;;;;;;8.97;6.97;;;13.00;99.90;;;;;;5018031;28;20210;-47
2021/10/27 02:43:12;;;;;;;8.43;6.60;;;13.10;99.90;;;;;;5025157;28;20500;-47
2021/10/27 02:45:38;;;;;;;9.23;7.23;;;13.10;99.90;;;;;;5026145;28;20421;-45
2021/10/27 02:48:05;;;;;;;10.10;7.30;;;13.10;99.90;;;;;;5025519;28;20474;-46
2021/10/27 02:50:30;;;;;;;7.87;7.07;;;13.20;99.90;;;;;;5025623;28;20186;-47
2021/10/27 02:52:56;;;;;;;7.53;6.23;;;13.20;99.90;;;;;;5024914;28;20426;-45
2021/10/27 02:55:22;;;;;;;6.97;6.27;;;13.20;99.90;;;;;;5015735;28;20217;-46
2021/10/27 02:57:48;;;;;;;9.50;6.00;;;13.30;99.90;;;;;;5023552;28;20696;-44
2021/10/27 03:00:14;;;;;;;7.90;6.30;;;13.30;99.90;;;;;;5025498;28;20217;-46
2021/10/27 03:02:39;;;;;;;7.60;6.27;;;13.20;99.90;;;;;;5025229;28;20187;-45
2021/10/27 03:05:08;;;;;;;8.17;7.47;;;13.20;99.90;;;;;;5024814;28;21006;-45
2021/10/27 03:07:34;;;;;;;8.87;6.43;;;13.20;99.90;;;;;;5030056;28;20466;-48
2021/10/27 03:10:01;;;;;;;10.97;8.20;;;13.20;99.90;;;;;;5036589;28;20789;-46
2021/10/27 03:12:27;;;;;;;7.93;7.13;;;13.20;99.90;;;;;;5020222;28;20421;-46
2021/10/27 03:14:52;;;;;;;8.23;7.43;;;13.20;99.90;;;;;;5028707;28;20424;-46
2021/10/27 03:17:19;;;;;;;10.33;7.47;;;13.20;99.90;;;;;;5029323;28;20218;-45
2021/10/27 03:19:45;;;;;;;11.17;7.50;;;13.20;99.90;;;;;;5028817;28;20203;-47
2021/10/27 03:22:11;;;;;;;7.23;6.53;;;13.20;99.90;;;;;;5029110;28;20428;-46
2021/10/27 03:24:37;;;;;;;9.87;8.10;;;13.20;99.90;;;;;;5027992;28;20429;-46
2021/10/27 03:27:03;;;;;;;8.33;7.53;;;13.20;99.90;;;;;;5022220;28;20425;-47
2021/10/27 03:29:29;;;;;;;12.50;7.87;;;13.20;99.90;;;;;;5028746;28;20621;-46
2021/10/27 03:31:55;;;;;;;11.43;8.30;;;13.20;99.90;;;;;;5029263;28;20535;-46
2021/10/27 03:34:20;;;;;;;9.57;7.80;;;13.20;99.90;;;;;;5028119;28;20512;-47
2021/10/27 03:36:46;;;;;;;13.40;8.00;;;13.10;99.90;;;;;;5029162;28;20186;-45
2021/10/27 03:39:12;;;;;;;9.93;7.87;;;13.20;99.90;;;;;;5028769;28;20549;-47
2021/10/27 03:41:38;;;;;;;8.40;7.53;;;13.30;99.90;;;;;;5019002;28;20221;-48
2021/10/27 03:44:05;;;;;;;9.97;7.73;;;13.20;99.90;;;;;;5027893;28;20486;-46
2021/10/27 03:46:32;;;;;;;8.87;7.37;;;13.30;99.90;;;;;;5028819;28;20520;-45
2021/10/27 03:48:59;;;;;;;8.50;7.47;;;13.20;99.90;;;;;;5021098;28;20788;-46
2021/10/27 03:51:25;;;;;;;10.47;7.67;;;13.20;99.90;;;;;;5023860;28;20556;-45
2021/10/27 03:53:51;;;;;;;10.17;8.10;;;13.10;99.90;;;;;;5024811;28;20520;-46
2021/10/27 03:56:17;;;;;;;7.33;6.47;;;13.20;99.90;;;;;;5014331;28;20210;-46
2021/10/27 03:58:42;;;;;;;9.87;6.53;;;13.10;99.90;;;;;;5028624;28;20208;-47
2021/10/27 04:01:08;;;;;;;7.27;6.57;;;13.10;99.90;;;;;;5028131;28;20460;-45
2021/10/27 04:03:34;;;;;;;7.47;6.00;;;13.20;99.90;;;;;;5027913;28;20201;-45
2021/10/27 04:06:00;;;;;;;7.03;6.30;;;13.20;99.90;;;;;;5027775;28;20229;-47
2021/10/27 04:08:26;;;;;;;7.90;5.87;;;13.20;99.90;;;;;;5027626;28;20179;-45
2021/10/27 04:10:51;;;;;;;6.97;6.27;;;13.20;99.90;;;;;;5027547;28;20821;-46
2021/10/27 04:13:18;;;;;;;5.93;5.33;;;13.30;99.90;;;;;;5026920;28;20209;-49
2021/10/27 04:15:44;;;;;;;6.60;5.80;;;13.30;99.90;;;;;;5028231;28;20194;-48
2021/10/27 04:18:10;;;;;;;8.90;5.57;;;13.30;99.90;;;;;;5028156;28;20559;-46
2021/10/27 04:20:37;;;;;;;7.07;5.63;;;13.40;99.90;;;;;;5026008;28;20971;-46
2021/10/27 04:23:04;;;;;;;7.77;5.60;;;13.30;99.90;;;;;;5027584;28;20422;-46
2021/10/27 04:25:30;;;;;;;9.93;6.30;;;13.30;99.90;;;;;;5023282;28;20512;-51
2021/10/27 04:27:56;;;;;;;9.10;6.27;;;13.30;99.90;;;;;;5022310;28;20924;-46
2021/10/27 04:30:21;;;;;;;7.47;4.63;;;13.30;99.90;;;;;;5027661;28;20424;-47
2021/10/27 04:32:47;;;;;;;6.00;4.90;;;13.30;99.90;;;;;;5027451;28;20226;-45
2021/10/27 04:35:13;;;;;;;8.50;5.10;;;13.30;99.90;;;;;;5027776;28;20272;-45
2021/10/27 04:37:41;;;;;;;7.93;5.40;;;13.30;99.90;;;;;;5027501;28;20209;-46
2021/10/27 04:40:10;;;;;;;8.87;4.93;;;13.30;99.90;;;;;;5026960;28;20547;-49
2021/10/27 04:42:37;;;;;;;9.03;6.00;;;13.30;99.90;;;;;;5016248;28;20421;-46
2021/10/27 04:45:04;;;;;;;8.67;5.07;;;13.40;99.90;;;;;;5025464;28;20449;-48
2021/10/27 04:47:30;;;;;;;6.40;4.80;;;13.40;99.90;;;;;;5025877;28;20982;-48
2021/10/27 04:49:56;;;;;;;7.23;5.83;;;13.40;99.90;;;;;;5028049;28;20418;-48
2021/10/27 04:52:22;;;;;;;5.80;4.67;;;13.40;99.90;;;;;;5025982;28;20199;-46
2021/10/27 04:54:48;;;;;;;5.83;5.30;;;13.30;99.90;;;;;;5025401;28;20569;-45
2021/10/27 04:57:13;;;;;;;10.93;5.57;;;13.30;99.90;;;;;;5015966;28;20447;-46
2021/10/27 04:59:42;;;;;;;7.63;5.20;;;13.30;99.90;;;;;;5025563;28;20178;-51
2021/10/27 05:02:09;;;;;;;11.43;5.37;;;13.40;99.90;;;;;;5027150;28;20222;-50
2021/10/27 05:04:35;;;;;;;6.60;5.27;;;13.40;99.90;;;;;;5026427;28;20413;-46
2021/10/27 05:07:01;;;;;;;6.03;4.80;;;13.40;99.90;;;;;;5027701;28;20428;-47
2021/10/27 05:09:27;;;;;;;7.73;6.93;;;13.50;99.90;;;;;;5046880;28;20409;-48
2021/10/27 05:11:53;;;;;;;10.30;5.20;;;13.50;99.90;;;;;;5018437;28;20444;-46
2021/10/27 05:14:19;;;;;;;11.43;6.03;;;13.50;99.90;;;;;;5025914;28;20432;-46
2021/10/27 05:16:45;;;;;;;6.00;4.60;;;13.50;99.90;;;;;;5027043;28;20421;-45
2021/10/27 05:19:10;;;;;;;6.33;4.77;;;13.40;99.90;;;;;;5027291;28;20194;-48
2021/10/27 05:21:36;;;;;;;9.17;4.60;;;13.40;99.90;;;;;;5026983;28;20221;-48
2021/10/27 05:24:02;;;;;;;8.40;5.07;;;13.40;99.90;;;;;;5026041;28;20665;-45
2021/10/27 05:26:28;;;;;;;6.53;4.53;;;13.40;99.90;;;;;;5018916;28;20704;-48
2021/10/27 05:28:53;;;;;;;9.50;4.80;;;13.40;99.90;;;;;;5026065;28;20182;-46
2021/10/27 05:31:19;;;;;;;9.33;4.80;;;13.30;99.90;;;;;;5026545;28;20191;-47
2021/10/27 05:33:45;;;;;;;4.77;4.30;;;13.30;99.90;;;;;;5025619;28;20194;-45
2021/10/27 05:36:11;;;;;;;4.73;4.00;;;13.30;99.90;;;;;;5026714;28;20483;-46
2021/10/27 05:38:36;;;;;;;8.60;4.23;;;13.30;99.90;;;;;;5026344;28;20200;-47
2021/10/27 05:41:03;;;;;;;6.13;4.13;;;13.40;99.90;;;;;;5019875;28;20723;-48
2021/10/27 05:43:28;;;;;;;6.23;3.83;;;13.30;99.90;;;;;;5018513;28;20635;-45
2021/10/27 05:45:56;;;;;;;5.67;4.60;;;13.40;99.90;;;;;;5026319;28;20421;-46
2021/10/27 05:48:26;;;;;;;8.57;4.17;;;13.30;99.90;;;;;;5026562;28;20216;-46
2021/10/27 05:51:36;;;;;;;5.27;3.50;;;13.40;99.90;;;;;;5026296;28;20413;-45
2021/10/27 05:56:27;;;;;;;10.20;4.70;;;13.30;99.90;;;;;;5008124;28;20461;-45
2021/10/27 05:58:53;;;;;;;4.90;4.40;;;13.20;99.90;;;;;;5021037;28;20428;-46
2021/10/27 06:01:18;;;;;;;7.53;4.33;;;13.20;99.90;;;;;;5026170;28;20566;-47
2021/10/27 06:03:44;;;;;;;6.50;3.93;;;13.20;99.90;;;;;;5025613;28;20268;-45
2021/10/27 06:06:13;;;;;;;5.33;4.40;;;13.20;99.90;;;;;;5025743;28;20195;-45
2021/10/27 06:08:39;;;;;;;6.07;3.40;;;13.30;99.90;;;;;;5039653;28;20193;-45
2021/10/27 06:11:09;;;;;;;4.87;3.80;;;13.30;99.90;;;;;;5037231;28;20473;-45
2021/10/27 06:13:37;;;;;;;4.73;4.23;;;13.30;99.90;;;;;;5022254;28;20959;-46
2021/10/27 06:16:03;;;;;;;6.13;3.10;;;13.40;99.90;;;;;;5025901;28;20440;-47
2021/10/27 06:18:29;;;;;;;6.67;3.93;;;13.40;99.90;;;;;;5025878;28;20547;-46
2021/10/27 06:20:54;;;;;;;3.83;3.53;;;13.40;99.90;;;;;;5025720;28;20994;-48
2021/10/27 06:23:22;;;;;;;10.60;3.97;;;13.40;99.90;;;;;;5025276;28;20201;-46
2021/10/27 06:25:49;;;;;;;4.40;4.00;;;13.50;99.90;;;;;;5020978;28;20849;-47
2021/10/27 06:28:21;;;;;;;6.20;3.70;;;13.50;99.90;;;;;;5018331;28;20482;-48
2021/10/27 06:36:07;;;;;;;4.40;4.00;;;13.40;99.90;;;;;;5026008;28;20850;-46
2021/10/27 06:46:37;;;;;;;4.13;3.73;;;13.50;99.90;;;;;;5029746;28;20840;-46
2021/10/27 06:49:04;;;;;;;4.70;3.20;;;13.50;99.90;;;;;;5029709;28;20447;-46
2021/10/27 06:51:29;;;;;;;4.80;3.90;;;13.50;99.90;;;;;;5029812;28;20433;-47
2021/10/27 06:53:55;;;;;;;5.13;3.70;;;13.50;99.90;;;;;;5028639;28;20462;-45
2021/10/27 06:56:22;;;;;;;5.63;3.43;;;13.60;99.90;;;;;;5028088;28;20576;-45
2021/10/27 07:17:35;;;;;;;7.70;4.00;;;13.60;99.90;;;;;;5029364;28;20507;-45
2021/10/27 07:20:02;;;;;;;5.67;3.13;;;13.70;99.90;;;;;;5029501;28;20618;-45
2021/10/27 07:22:28;;;;;;;4.90;3.47;;;13.70;99.90;;;;;;5049315;28;20775;-46
2021/10/27 07:24:54;;;;;;;6.33;3.07;;;13.60;99.90;;;;;;5047866;28;20431;-48
2021/10/27 07:27:20;;;;;;;5.20;3.77;;;13.70;99.90;;;;;;5030890;28;20459;-45
2021/10/27 07:29:46;;;;;;;6.17;2.90;;;13.70;99.90;;;;;;5022535;28;20518;-47
2021/10/27 07:32:15;;;;;;;6.07;3.63;;;13.70;99.90;;;;;;5029108;28;20421;-46
2021/10/27 07:34:50;;;;;;;3.80;3.30;;;13.80;99.90;;;;;;5028192;28;20433;-49
2021/10/27 07:42:26;;;;;;;4.73;3.00;;;13.80;99.90;;;;;;5020567;28;20452;-45
2021/10/27 07:44:52;;;;;;;4.47;3.23;;;13.80;99.90;;;;;;5025936;28;20579;-45
2021/10/27 07:47:18;;;;;;;3.57;2.80;;;13.80;99.90;;;;;;5028964;28;20452;-45
2021/10/27 07:49:45;;;;;;;5.10;3.30;;;13.80;99.90;;;;;;5028979;28;20194;-46
2021/10/27 07:52:11;;;;;;;4.33;3.93;;;13.80;99.90;;;;;;5028676;28;20424;-48
2021/10/27 07:54:38;;;;;;;4.40;3.10;;;13.80;99.90;;;;;;5027142;28;20475;-47
2021/10/27 07:57:04;;;;;;;4.43;3.40;;;13.80;99.90;;;;;;5022059;28;20305;-46
2021/10/27 07:59:31;;;;;;;3.53;3.23;;;13.80;99.90;;;;;;5021876;28;20761;-50
2021/10/27 08:01:58;;;;;;;12.10;3.43;;;13.80;99.90;;;;;;5028585;28;20488;-46
2021/10/27 08:04:24;;;;;;;5.70;3.80;;;13.80;99.90;;;;;;5027733;28;20922;-45
2021/10/27 08:06:50;;;;;;;5.73;4.03;;;13.70;99.90;;;;;;5027034;28;20429;-46
2021/10/27 08:09:17;;;;;;;5.40;3.87;;;13.80;99.90;;;;;;5046887;28;20196;-45
2021/10/27 08:11:43;;;;;;;4.13;3.77;;;13.70;99.90;;;;;;5043647;28;20420;-51
2021/10/27 08:14:11;;;;;;;3.90;3.17;;;13.80;99.90;;;;;;5019564;28;20924;-45
2021/10/27 08:16:36;;;;;;;6.60;3.90;;;13.80;99.90;;;;;;5027785;28;20443;-46
2021/10/27 08:19:03;;;;;;;6.30;3.90;;;13.80;99.90;;;;;;5028233;28;20437;-48
2021/10/27 08:21:29;;;;;;;6.33;4.10;;;13.90;99.90;;;;;;5028180;28;20272;-45
2021/10/27 08:23:55;;;;;;;5.77;3.80;;;13.90;99.90;;;;;;5026901;28;20429;-48
2021/10/27 08:26:24;;;;;;;4.80;4.10;;;13.90;99.90;;;;;;5028296;28;20445;-49
2021/10/27 08:29:02;;;;;;;7.00;4.70;;;13.80;99.90;;;;;;5016932;28;20540;-46
2021/10/27 08:31:36;;;;;;;3.50;3.03;;;13.80;99.90;;;;;;5027229;28;20441;-47
2021/10/27 08:34:07;;;;;;;7.90;4.13;;;13.80;99.90;;;;;;5028764;28;20989;-46
2021/10/27 08:36:33;;;;;;;5.27;4.03;;;13.80;99.90;;;;;;5027487;28;20945;-46
2021/10/27 08:39:00;;;;;;;3.53;3.23;;;13.80;99.90;;;;;;5027515;28;20461;-48
2021/10/27 08:41:26;;;;;;;5.23;3.63;;;13.90;99.90;;;;;;5027401;28;20393;-47
2021/10/27 08:43:52;;;;;;;5.03;3.40;;;13.80;99.90;;;;;;5017144;28;20710;-50
2021/10/27 08:46:19;;;;;;;4.77;3.57;;;13.90;99.90;;;;;;5026392;28;20190;-45
2021/10/27 08:48:50;;;;;;;4.33;3.50;;;13.90;99.90;;;;;;5027451;28;20429;-43
2021/10/27 08:51:17;;;;;;;5.43;3.80;;;13.90;99.90;;;;;;5027320;28;20433;-43
2021/10/27 08:53:43;;;;;;;3.63;3.17;;;14.00;99.90;;;;;;5026780;28;20425;-47
2021/10/27 08:56:10;;;;;;;4.30;3.80;;;14.00;99.90;;;;;;5027600;28;20453;-46
2021/10/27 08:58:40;;;;;;;4.60;4.17;;;14.00;99.90;;;;;;5016959;28;20218;-47
2021/10/27 09:01:14;;;;;;;5.07;3.80;;;14.00;99.90;;;;;;5027228;28;20474;-47
2021/10/27 09:06:57;;;;;;;6.90;3.70;;;14.00;99.90;;;;;;5026831;28;20425;-46
2021/10/27 09:09:49;;;;;;;3.87;3.50;;;14.00;99.90;;;;;;5047114;28;20489;-44
2021/10/27 09:15:30;;;;;;;4.57;3.40;;;14.00;99.90;;;;;;5021791;28;20429;-45
2021/10/27 09:55:57;;;;;;;7.83;3.60;;;14.10;99.90;;;;;;5025901;28;20444;-45
2021/10/27 10:06:37;;;;;;;5.27;3.87;;;14.10;99.90;;;;;;5025845;28;20425;-46
2021/10/27 10:09:05;;;;;;;4.80;3.60;;;14.10;99.90;;;;;;5043218;28;20455;-46
2021/10/27 10:11:31;;;;;;;5.23;3.43;;;14.10;99.90;;;;;;5044401;28;21004;-47
2021/10/27 10:14:01;;;;;;;4.77;3.60;;;14.10;99.90;;;;;;5022037;28;20455;-47
2021/10/27 10:16:28;;;;;;;5.20;3.87;;;14.10;99.90;;;;;;5025361;28;20445;-46
2021/10/27 10:18:59;;;;;;;4.20;3.80;;;14.10;99.90;;;;;;5025137;28;20519;-47
2021/10/27 10:21:29;;;;;;;4.97;3.53;;;14.10;99.90;;;;;;5026002;28;20860;-46
2021/10/27 10:24:23;;;;;;;4.87;3.30;;;14.20;99.90;;;;;;5025251;28;20433;-47
2021/10/27 10:26:51;;;;;;;8.33;3.67;;;14.20;99.90;;;;;;5025795;28;20512;-44
2021/10/27 10:29:35;;;;;;;5.03;3.47;;;14.30;99.90;;;;;;5014452;28;20446;-44
2021/10/27 10:32:24;;;;;;;4.37;3.33;;;14.30;99.90;;;;;;5024781;28;20827;-45
2021/10/27 10:34:55;;;;;;;4.50;3.50;;;14.40;99.90;;;;;;5024539;28;20770;-44
2021/10/27 10:40:50;;;;;;;5.20;3.90;;;14.40;99.90;;;;;;5025849;28;20429;-48
2021/10/27 10:44:22;;;;;;;7.23;4.50;;;14.50;99.90;;;;;;5019410;28;20541;-47
2021/10/27 10:56:19;;;;;;;6.97;3.93;;;14.70;99.90;;;;;;5024199;28;20904;-47
2021/10/27 11:23:39;;;;;;;5.37;3.50;;;15.50;99.90;;;;;;5042694;28;20802;-48
2021/10/27 11:26:23;;;;;;;4.40;3.37;;;15.60;99.90;;;;;;5025656;28;20471;-46
2021/10/27 11:37:40;;;;;;;4.53;3.20;;;15.90;99.90;;;;;;5021867;28;20973;-45
2021/10/27 11:40:29;;;;;;;4.13;3.30;;;16.00;99.90;;;;;;5045568;28;20970;-44
2021/10/27 11:43:18;;;;;;;5.17;2.80;;;16.20;99.90;;;;;;5030565;28;20471;-44
2021/10/27 11:48:26;;;;;;;6.33;3.10;;;16.70;99.90;;;;;;5028877;28;20767;-44
2021/10/27 11:50:52;;;;;;;6.07;3.27;;;16.80;99.90;;;;;;5028757;28;20982;-45
2021/10/27 11:53:32;;;;;;;4.07;2.33;;;16.90;99.90;;;;;;5028104;28;20429;-44
2021/10/27 11:56:08;;;;;;;4.50;2.70;;;17.00;99.90;;;;;;5028391;28;20205;-44
2021/10/27 11:58:40;;;;;;;3.17;2.80;;;17.10;99.90;;;;;;5023910;28;20521;-45
2021/10/27 12:01:07;;;;;;;3.93;2.93;;;17.20;99.90;;;;;;5025752;28;20527;-46
2021/10/27 12:03:42;;;;;;;3.43;2.30;;;17.30;99.90;;;;;;5027809;28;20789;-44
2021/10/27 12:06:26;;;;;;;5.70;2.93;;;17.40;99.90;;;;;;5029008;28;20437;-46
2021/10/27 12:19:26;;;;;;;3.20;2.40;;;17.50;99.90;;;;;;5028587;28;20435;-44
2021/10/27 12:21:57;;;;;;;3.77;2.40;;;17.60;99.90;;;;;;5029156;28;20476;-46
2021/10/27 12:24:29;;;;;;;4.03;2.40;;;17.60;99.90;;;;;;5029536;28;20425;-44
2021/10/27 12:27:08;;;;;;;2.63;2.10;;;17.80;99.90;;;;;;5026893;28;20520;-44
2021/10/27 12:29:39;;;;;;;4.37;2.40;;;17.80;99.90;;;;;;5019018;28;20464;-44
2021/10/27 12:32:11;;;;;;;2.30;2.00;;;17.90;99.90;;;;;;5026803;28;21010;-48
2021/10/27 12:34:51;;;;;;;3.93;1.80;;;17.90;99.90;;;;;;5026651;28;20783;-46
2021/10/27 12:37:32;;;;;;;3.70;2.27;;;17.80;99.90;;;;;;5027612;28;20421;-44
2021/10/27 12:40:35;;;;;;;2.83;1.80;;;17.80;99.90;;;;;;5027713;28;20432;-47
2021/10/27 12:43:13;;;;;;;3.53;2.30;;;17.90;99.90;;;;;;5025711;28;20448;-44
2021/10/27 12:45:41;;;;;;;5.00;1.97;;;18.10;99.90;;;;;;5019760;28;20468;-45
2021/10/27 12:48:11;;;;;;;5.07;2.20;;;18.00;99.90;;;;;;5027400;28;20795;-45
2021/10/27 12:50:52;;;;;;;3.30;2.30;;;18.10;99.90;;;;;;5025987;28;20412;-45
2021/10/27 12:53:35;;;;;;;8.77;2.73;;;18.10;99.90;;;;;;5018343;28;20924;-45
2021/10/27 12:56:14;;;;;;;3.70;2.50;;;18.10;99.90;;;;;;5030633;28;20830;-44
2021/10/27 12:58:49;;;;;;;3.93;2.53;;;18.10;99.90;;;;;;5030377;28;20606;-46
2021/10/27 13:05:13;;;;;;;4.67;2.67;;;17.80;99.90;;;;;;5019375;28;20422;-44
2021/10/27 13:07:23;;;;;;;3.97;2.70;;;17.70;99.90;;;;;;5027978;28;20440;-46
2021/10/27 13:30:16;;;;;;;4.20;2.67;;;18.00;99.90;;;;;;5014981;28;20512;-46
2021/10/27 13:33:03;;;;;;;3.40;2.60;;;18.00;99.90;;;;;;5022275;28;20505;-44
2021/10/27 13:35:29;;;;;;;4.23;2.47;;;17.90;99.90;;;;;;5014845;28;20927;-47
2021/10/27 13:37:55;;;;;;;3.40;2.60;;;17.90;99.90;;;;;;5027933;28;20441;-46
2021/10/27 13:40:21;;;;;;;3.17;2.63;;;17.80;99.90;;;;;;5046317;28;20471;-45
2021/10/27 13:45:46;;;;;;;4.30;2.80;;;17.50;99.90;;;;;;5020883;28;20847;-47
2021/10/27 14:05:56;;;;;;;4.10;3.57;;;17.00;99.90;;;;;;5022257;28;20433;-45
2021/10/27 14:07:33;;;;;;;2.90;2.70;;;16.80;99.90;;;;;;5027957;28;20425;-44
2021/10/27 14:15:27;;;;;;;4.00;3.00;;;16.80;99.90;;;;;;5015450;28;20511;-46
2021/10/27 14:38:54;;;;;;;3.37;2.80;;;16.70;99.90;;;;;;5041625;28;20435;-44
2021/10/27 15:20:34;;;;;;;4.50;3.13;;;16.30;99.90;;;;;;5028533;28;21050;-45
2021/10/27 15:23:15;;;;;;;5.00;3.10;;;16.30;99.90;;;;;;5020278;28;20432;-44
2021/10/27 15:31:25;;;;;;;3.87;3.00;;;16.20;99.90;;;;;;5030099;28;20436;-44
2021/10/27 15:36:44;;;;;;;8.07;3.20;;;16.10;99.90;;;;;;5010785;28;20425;-50
2021/10/27 15:44:31;;;;;;;5.70;2.40;;;15.90;99.90;;;;;;5028045;28;20424;-44
2021/10/27 15:52:26;;;;;;;5.13;3.83;;;15.90;99.90;;;;;;5025949;28;20738;-44
2021/10/27 15:54:51;;;;;;;3.63;2.47;;;15.90;99.90;;;;;;5026064;28;21475;-46
2021/10/27 15:57:17;;;;;;;3.80;2.77;;;15.90;99.90;;;;;;5028691;28;20285;-49
2021/10/27 15:59:44;;;;;;;4.90;3.07;;;15.80;99.90;;;;;;5021608;28;20313;-49
2021/10/27 16:02:11;;;;;;;3.00;2.47;;;15.80;99.90;;;;;;5018523;28;20248;-46
2021/10/27 16:04:38;;;;;;;3.83;2.50;;;15.70;99.90;;;;;;5028819;28;20497;-45
2021/10/27 16:07:07;;;;;;;3.10;2.50;;;15.60;99.90;;;;;;5027775;28;20523;-48
2021/10/27 16:09:44;;;;;;;4.83;2.70;;;15.50;99.90;;;;;;5029377;28;20429;-46
2021/10/27 16:12:11;;;;;;;5.60;3.70;;;15.50;99.90;;;;;;5027780;28;20435;-48
2021/10/27 16:14:38;;;;;;;4.43;2.97;;;15.50;99.90;;;;;;5028748;28;20433;-48
2021/10/27 16:17:04;;;;;;;5.43;2.87;;;15.40;99.90;;;;;;5026655;28;20451;-47
2021/10/27 16:19:31;;;;;;;3.67;2.70;;;15.40;99.90;;;;;;5029712;28;20482;-46
2021/10/27 16:21:57;;;;;;;7.30;3.30;;;15.40;99.90;;;;;;5029557;28;20873;-48
2021/10/27 16:24:25;;;;;;;3.80;2.63;;;15.30;99.90;;;;;;5028799;28;20464;-44
2021/10/27 16:26:55;;;;;;;5.50;3.03;;;15.30;99.90;;;;;;5030417;28;20435;-44
2021/10/27 16:29:21;;;;;;;3.63;2.33;;;15.30;99.90;;;;;;5028962;28;20764;-45
2021/10/27 16:31:48;;;;;;;4.13;3.27;;;15.20;99.90;;;;;;5021369;28;20822;-44
2021/10/27 16:34:14;;;;;;;5.17;3.23;;;15.20;99.90;;;;;;5025466;28;20869;-49
2021/10/27 16:36:42;;;;;;;4.30;2.70;;;15.10;99.90;;;;;;5023981;28;20445;-49
2021/10/27 16:39:09;;;;;;;4.97;3.30;;;15.10;99.90;;;;;;5022926;28;20958;-43
2021/10/27 16:41:36;;;;;;;3.03;2.60;;;15.10;99.90;;;;;;5027785;28;20468;-46
2021/10/27 16:44:02;;;;;;;7.03;3.03;;;15.10;99.90;;;;;;5028001;28;20765;-46
2021/10/27 16:46:27;;;;;;;2.87;2.63;;;15.10;99.90;;;;;;5020898;28;20444;-48
2021/10/27 16:48:53;;;;;;;3.97;2.70;;;14.90;99.90;;;;;;5019779;28;20209;-49
2021/10/27 16:51:20;;;;;;;4.40;2.47;;;14.80;99.90;;;;;;5028829;28;20187;-48
2021/10/27 16:53:47;;;;;;;4.43;2.67;;;14.70;99.90;;;;;;5027476;28;20595;-48
2021/10/27 16:56:13;;;;;;;4.93;2.50;;;14.70;99.90;;;;;;5026749;28;20452;-48
2021/10/27 16:58:39;;;;;;;5.50;2.93;;;14.70;99.90;;;;;;5027966;28;20426;-45
2021/10/27 17:01:05;;;;;;;3.13;2.57;;;14.60;99.90;;;;;;5024927;28;20842;-45
2021/10/27 17:03:31;;;;;;;7.23;2.90;;;14.60;99.90;;;;;;5024334;28;20177;-44
2021/10/27 17:05:57;;;;;;;4.60;3.00;;;14.60;99.90;;;;;;5030335;28;20426;-47
2021/10/27 17:08:25;;;;;;;4.23;3.13;;;14.70;99.90;;;;;;5029006;28;20182;-44
2021/10/27 17:10:53;;;;;;;4.27;3.00;;;14.70;99.90;;;;;;5026209;28;20429;-45
2021/10/27 17:13:20;;;;;;;4.60;3.20;;;14.70;99.90;;;;;;5023672;28;20495;-44
2021/10/27 17:15:47;;;;;;;5.53;3.17;;;14.70;99.90;;;;;;5023574;28;20437;-47
2021/10/27 17:18:14;;;;;;;3.53;3.03;;;14.50;99.90;;;;;;5026258;28;21395;-46
2021/10/27 17:20:41;;;;;;;3.60;3.00;;;14.50;99.90;;;;;;5028846;28;20465;-46
2021/10/27 17:23:09;;;;;;;5.43;3.50;;;14.50;99.90;;;;;;5026165;28;20413;-44
2021/10/27 17:25:35;;;;;;;3.63;3.13;;;14.40;99.90;;;;;;5026819;28;20919;-47
2021/10/27 17:28:01;;;;;;;3.90;3.37;;;14.40;99.90;;;;;;5021635;28;20528;-47
2021/10/27 17:30:27;;;;;;;4.97;3.80;;;14.40;99.90;;;;;;5024327;28;20940;-44
2021/10/27 17:32:58;;;;;;;5.10;3.67;;;14.50;99.90;;;;;;5019198;28;20829;-43